M I D A S
Marine Information and Data Acquisition System
Tripno 1479 of the Zeeleeuw from 2008-05-05 14:10:10 to 2008-05-05 14:39:50
Back to CruiseResearch ActivitiesStationsMapUnderway DataData graphs

EquipmentUnitsComment
TimeDGPSUTC
LatitudeDGPSDM.mWGS84
LongitudeDGPSDM.mWGS84
TemperatureSBE03/SBE38deg celciusITS90
ConductivitySBE21S/mITS90
SalinitySBE21 Practical Salinity Units
ChlorophylAChelsea fluorimeterg/lCalibrated in Aceton
Missing or incorrect values are displayed as -999
Sea surface data collected by the RV Zeeleeuw from 2008-05-05 09:10:15 to 2008-05-05 14:53:45
Time Latitude Longitude Temperature Conductivity Salinity ChlorophylA
2008-05-05 09:11:19 51°14.562 2°54.279 18.4149 0.099836 0.469175 -1.662225
2008-05-05 09:12:20 51°14.512 2°54.576 18.3438 0.099836 0.469295 -1.662225
2008-05-05 09:13:19 51°14.441 2°54.816 18.6566 0.099836 0.46943 -1.662225
2008-05-05 09:14:20 51°14.375 2°55.021 18.6312 0.099733 0.469049 -1.662225
2008-05-05 09:15:20 51°14.293 2°55.21 18.7768 0.099733 0.469177 -1.662225
2008-05-05 09:16:20 51°14.192 2°55.368 18.7436 0.099733 0.469304 -1.662225
2008-05-05 09:17:20 51°14.081 2°55.463 18.8238 0.099733 0.469439 -1.697049
2008-05-05 09:18:20 51°14.004 2°55.518 18.9105 0.09963 0.469065 -1.662225
2008-05-05 09:19:20 51°13.928 2°55.57 18.978 0.09963 0.469192 -1.697049
2008-05-05 09:20:19 51°13.847 2°55.626 19.043 0.09963 0.469334 -1.697049
2008-05-05 09:21:20 51°13.773 2°55.686 19.1155 0.09963 0.469461 -1.697049
2008-05-05 09:22:20 51°13.733 2°55.762 19.1239 0.099527 0.469074 -1.697049
2008-05-05 09:23:20 51°13.703 2°55.845 19.1829 0.099527 0.469188 -1.697049
2008-05-05 09:24:20 51°13.679 2°55.921 19.198 0.099527 0.469309 -1.697049
2008-05-05 09:25:20 51°13.668 2°55.951 19.2638 0.099527 0.469431 -1.697049
2008-05-05 09:26:20 51°13.666 2°55.955 19.3251 0.099424 0.469042 -1.697049
2008-05-05 09:27:19 51°13.667 2°55.955 19.2914 0.099424 0.46915 -1.697049
2008-05-05 09:28:20 51°13.667 2°55.955 19.3639 0.099424 0.469265 -1.697049
2008-05-05 09:29:20 51°13.668 2°55.955 19.3812 0.099424 0.469353 -1.697049
2008-05-05 09:30:20 51°13.668 2°55.955 19.4744 0.099321 0.468971 -1.697049
2008-05-05 09:31:19 51°13.667 2°55.955 19.4213 0.099321 0.469079 -1.697049
2008-05-05 09:32:20 51°13.666 2°55.955 19.3614 0.099321 0.46918 -1.697049
2008-05-05 09:33:20 51°13.667 2°55.955 19.5258 0.099321 0.469288 -1.731873
2008-05-05 09:34:20 51°13.666 2°55.955 19.5222 0.099321 0.469396 -1.697049
2008-05-05 09:35:20 51°13.666 2°55.956 19.5537 0.099218 0.468994 -1.697049
2008-05-05 09:36:20 51°13.666 2°55.955 19.7267 0.099218 0.469095 -1.488105
2008-05-05 09:37:20 51°13.665 2°55.955 19.739 0.099218 0.469197 -1.522929
2008-05-05 09:38:20 51°13.665 2°55.954 19.749 0.099218 0.469298 -1.522929
2008-05-05 09:39:20 51°13.666 2°55.955 19.7604 0.099115 0.468896 -1.522929
2008-05-05 09:40:19 51°13.667 2°55.955 19.765 0.099115 0.468997 -1.522929
2008-05-05 09:41:20 51°13.667 2°55.955 19.7735 0.099115 0.469099 -1.488105
2008-05-05 09:42:20 51°13.666 2°55.955 19.7797 0.099115 0.469193 -1.488105
2008-05-05 09:43:20 51°13.667 2°55.955 19.7864 0.099115 0.469295 -1.522929
2008-05-05 09:44:20 51°13.666 2°55.955 19.7943 0.099013 0.468892 -1.522929
2008-05-05 09:45:19 51°13.666 2°55.954 19.7959 0.099013 0.468987 -1.522929
2008-05-05 09:46:20 51°13.666 2°55.954 19.8079 0.099013 0.469082 -1.522929
2008-05-05 09:47:20 51°13.666 2°55.954 19.8121 0.099013 0.469177 -1.522929
2008-05-05 09:48:20 51°13.666 2°55.954 19.825 0.099013 0.469265 -1.522929
2008-05-05 09:49:20 51°13.666 2°55.953 19.8308 0.09891 0.468855 -1.522929
2008-05-05 09:50:20 51°13.666 2°55.954 19.8382 0.09891 0.46895 -1.522929
2008-05-05 09:51:20 51°13.666 2°55.954 19.845 0.09891 0.469045 -1.522929
2008-05-05 09:52:20 51°13.665 2°55.954 19.8577 0.09891 0.469133 -1.522929
2008-05-05 09:53:20 51°13.665 2°55.954 19.8629 0.09891 0.469221 -1.522929
2008-05-05 09:54:20 51°13.665 2°55.954 19.8671 0.09891 0.469316 -1.522929
2008-05-05 09:55:20 51°13.665 2°55.954 19.8795 0.098807 0.468899 -1.522929
2008-05-05 09:56:20 51°13.665 2°55.954 19.8877 0.098807 0.468994 -1.522929
2008-05-05 09:57:20 51°13.665 2°55.955 19.8932 0.098807 0.469082 -1.522929
2008-05-05 09:58:20 51°13.665 2°55.954 19.8975 0.098807 0.469171 -1.522929
2008-05-05 09:59:20 51°13.665 2°55.954 19.9062 0.098807 0.469259 -1.522929
2008-05-05 10:00:20 51°13.666 2°55.954 19.912 0.098704 0.468848 -1.522929
2008-05-05 10:01:20 51°13.665 2°55.954 19.9165 0.098704 0.46893 -1.522929
2008-05-05 10:02:20 51°13.665 2°55.954 19.9307 0.098704 0.469018 -1.522929
2008-05-05 10:03:20 51°13.665 2°55.955 19.9412 0.098704 0.469107 -1.557753
2008-05-05 10:04:20 51°13.665 2°55.955 19.948 0.098704 0.469195 -1.522929
2008-05-05 10:05:20 51°13.665 2°55.954 19.9513 0.098704 0.469277 -1.557753
2008-05-05 10:06:20 51°13.665 2°55.954 19.9565 0.098601 0.468859 -1.557753
2008-05-05 10:07:20 51°13.665 2°55.954 19.9662 0.098601 0.468948 -1.557753
2008-05-05 10:08:20 51°13.665 2°55.955 19.9746 0.098601 0.469023 -1.557753
2008-05-05 10:09:20 51°13.665 2°55.953 19.9796 0.098601 0.469111 -1.557753
2008-05-05 10:10:20 51°13.665 2°55.954 19.9882 0.098601 0.469193 -1.557753
2008-05-05 10:11:20 51°13.665 2°55.954 19.9952 0.098601 0.469275 -1.557753
2008-05-05 10:12:19 51°13.665 2°55.954 20.0012 0.098498 0.46885 -1.557753
2008-05-05 10:13:20 51°13.665 2°55.954 20.0083 0.098498 0.468931 -1.557753
2008-05-05 10:14:20 51°13.665 2°55.954 20.0145 0.098498 0.469013 -1.557753
2008-05-05 10:15:20 51°13.665 2°55.954 20.0246 0.098498 0.469095 -1.557753
2008-05-05 10:16:20 51°13.665 2°55.954 20.0319 0.098498 0.469177 -1.557753
2008-05-05 10:17:20 51°13.665 2°55.955 20.0374 0.098498 0.469259 -1.592577
2008-05-05 10:18:20 51°13.665 2°55.956 20.0392 0.098395 0.468827 -1.592577
2008-05-05 10:19:20 51°13.665 2°55.955 20.0502 0.098395 0.468909 -1.557753
2008-05-05 10:20:20 51°13.665 2°55.955 20.056 0.098395 0.468984 -1.592577
2008-05-05 10:21:20 51°13.666 2°55.955 20.0637 0.098395 0.469066 -1.592577
2008-05-05 10:22:20 51°13.666 2°55.955 20.0752 0.098395 0.469148 -1.592577
2008-05-05 10:23:20 51°13.665 2°55.955 20.082 0.098395 0.469223 -1.592577
2008-05-05 10:24:20 51°13.665 2°55.954 20.0892 0.098395 0.469299 -1.592577
2008-05-05 10:25:20 51°13.665 2°55.955 20.0938 0.098292 0.468865 -1.592577
2008-05-05 10:26:20 51°13.665 2°55.955 20.1013 0.098292 0.468941 -1.592577
2008-05-05 10:27:20 51°13.665 2°55.955 20.1087 0.098292 0.469016 -1.592577
2008-05-05 10:28:20 51°13.665 2°55.955 20.112 0.098292 0.469091 -1.592577
2008-05-05 10:29:20 51°13.665 2°55.955 20.1176 0.098292 0.469167 -1.592577
2008-05-05 10:30:20 51°13.665 2°55.955 20.1256 0.098292 0.469242 -1.592577
2008-05-05 10:31:20 51°13.666 2°55.955 20.1273 0.098292 0.469318 -1.592577
2008-05-05 10:32:20 51°13.665 2°55.954 20.1337 0.098189 0.468877 -1.592577
2008-05-05 10:33:20 51°13.665 2°55.953 20.1402 0.098189 0.468959 -1.627401
2008-05-05 10:34:20 51°13.665 2°55.953 20.1458 0.098189 0.469035 -1.592577
2008-05-05 10:35:20 51°13.666 2°55.954 20.1511 0.098189 0.469117 -1.592577
2008-05-05 10:36:20 51°13.666 2°55.954 20.1552 0.098189 0.469186 -1.627401
2008-05-05 10:37:20 51°13.666 2°55.954 20.1599 0.098189 0.469261 -1.627401
2008-05-05 10:38:20 51°13.666 2°55.952 20.1646 0.098189 0.469337 -1.627401
2008-05-05 10:39:20 51°13.666 2°55.953 20.1699 0.098087 0.468903 -1.627401
2008-05-05 10:40:20 51°13.666 2°55.953 20.1776 0.098087 0.468972 -1.627401
2008-05-05 10:41:20 51°13.666 2°55.954 20.1806 0.098087 0.469047 -1.627401
2008-05-05 10:42:20 51°13.666 2°55.954 20.1872 0.098087 0.469116 -1.627401
2008-05-05 10:43:20 51°13.667 2°55.954 20.1953 0.098087 0.469191 -1.627401
2008-05-05 10:44:20 51°13.667 2°55.955 20.2024 0.098087 0.46926 -1.627401
2008-05-05 10:45:20 51°13.667 2°55.956 20.2054 0.098087 0.469329 -1.627401
2008-05-05 10:46:20 51°13.667 2°55.955 20.2084 0.097984 0.468888 -1.627401
2008-05-05 10:47:20 51°13.666 2°55.955 20.2124 0.097984 0.468956 -1.627401
2008-05-05 10:48:20 51°13.666 2°55.955 20.2187 0.097984 0.469032 -1.627401
2008-05-05 10:49:20 51°13.666 2°55.955 20.2202 0.097984 0.469094 -1.627401
2008-05-05 10:50:20 51°13.666 2°55.955 20.2241 0.097984 0.469156 -1.627401
2008-05-05 10:51:20 51°13.666 2°55.955 20.2279 0.097984 0.469225 -1.627401
2008-05-05 10:52:20 51°13.666 2°55.954 20.231 0.097984 0.469287 -1.627401
2008-05-05 10:53:20 51°13.666 2°55.954 20.2338 0.097984 0.469356 -1.627401
2008-05-05 10:54:20 51°13.667 2°55.954 20.239 0.097881 0.468921 -1.627401
2008-05-05 10:55:20 51°13.666 2°55.954 20.2413 0.097881 0.468983 -1.627401
2008-05-05 10:56:20 51°13.667 2°55.953 20.246 0.097881 0.469052 -1.627401
2008-05-05 10:57:20 51°13.666 2°55.953 20.2538 0.097881 0.469127 -1.627401
2008-05-05 10:58:20 51°13.666 2°55.953 20.2547 0.097881 0.46919 -1.627401
2008-05-05 10:59:20 51°13.666 2°55.953 20.2608 0.097881 0.469252 -1.662225
2008-05-05 11:00:20 51°13.666 2°55.953 20.2668 0.097881 0.469314 -1.627401
2008-05-05 11:01:20 51°13.666 2°55.953 20.2711 0.097881 0.469383 -1.627401
2008-05-05 11:02:20 51°13.666 2°55.953 20.2773 0.097778 0.468934 -1.627401
2008-05-05 11:03:20 51°13.665 2°55.952 20.2792 0.097778 0.468996 -1.627401
2008-05-05 11:04:20 51°13.666 2°55.952 20.2807 0.097778 0.469051 -1.627401
2008-05-05 11:05:20 51°13.666 2°55.952 20.2848 0.097778 0.469113 -1.662225
2008-05-05 11:06:20 51°13.666 2°55.953 20.2891 0.097778 0.469168 -1.662225
2008-05-05 11:07:20 51°13.666 2°55.953 20.2954 0.097778 0.469237 -1.662225
2008-05-05 11:08:20 51°13.667 2°55.955 20.3016 0.097778 0.469293 -1.627401
2008-05-05 11:09:20 51°13.666 2°55.954 20.3025 0.097778 0.469355 -1.627401
2008-05-05 11:10:20 51°13.667 2°55.953 20.3014 0.097778 0.46941 -1.662225
2008-05-05 11:11:20 51°13.666 2°55.953 20.3057 0.097675 0.46896 -1.662225
2008-05-05 11:12:20 51°13.667 2°55.953 20.3092 0.097675 0.469016 -1.627401
2008-05-05 11:13:20 51°13.666 2°55.953 20.3142 0.097675 0.469071 -1.662225
2008-05-05 11:14:20 51°13.665 2°55.955 20.3243 0.097675 0.469133 -1.662225
2008-05-05 11:15:20 51°13.665 2°55.956 20.324 0.097675 0.469195 -1.662225
2008-05-05 11:16:19 51°13.665 2°55.956 20.3262 0.097675 0.469244 -1.662225
2008-05-05 11:17:20 51°13.68 2°55.911 20.3344 0.097675 0.469299 -1.662225
2008-05-05 11:18:20 51°13.699 2°55.826 20.3392 0.097675 0.469348 -1.662225
2008-05-05 11:19:19 51°13.704 2°55.761 20.3436 0.097675 0.46941 -1.662225
2008-05-05 11:20:20 51°13.705 2°55.754 20.3285 0.097675 0.469472 -1.662225
2008-05-05 11:21:19 51°13.713 2°55.74 20.3823 0.097675 0.469493 -1.662225
2008-05-05 11:22:20 51°13.768 2°55.702 20.3399 0.097572 0.469043 -1.662225
2008-05-05 11:23:20 51°13.847 2°55.624 20.3185 0.097572 0.469119 -1.662225
2008-05-05 11:24:20 51°13.94 2°55.554 20.3286 0.097572 0.469174 -1.662225
2008-05-05 11:25:20 51°14.028 2°55.495 20.3535 0.097572 0.469216 -1.662225
2008-05-05 11:26:20 51°14.114 2°55.433 20.3709 0.097572 0.469278 -1.662225
2008-05-05 11:27:20 51°14.208 2°55.336 20.3568 0.097572 0.469334 -1.662225
2008-05-05 11:28:20 51°14.294 2°55.194 20.358 0.097572 0.469389 -1.662225
2008-05-05 11:29:20 51°14.376 2°55.02 20.2874 0.097572 0.469459 -1.662225
2008-05-05 11:30:19 51°14.477 2°54.816 20.3408 0.097572 0.469535 -1.662225
2008-05-05 11:31:20 51°14.511 2°54.537 20.3265 0.097572 0.46966 -1.662225
2008-05-05 11:32:19 51°14.458 2°54.279 20.3215 0.097572 0.469729 -1.662225
2008-05-05 11:33:20 51°14.395 2°54.015 20.3237 0.097469 0.46932 -1.662225
2008-05-05 11:34:20 51°14.343 2°53.751 20.3219 0.097469 0.469424 -1.662225
2008-05-05 11:35:20 51°14.277 2°53.499 20.3953 0.097469 0.469508 -1.662225
2008-05-05 11:36:20 51°14.219 2°53.242 20.3916 0.097469 0.469584 -1.662225
2008-05-05 11:37:20 51°14.159 2°52.987 20.4109 0.097469 0.469668 -1.662225
2008-05-05 11:38:20 51°14.094 2°52.753 20.428 0.097469 0.469737 -1.662225
2008-05-05 11:39:20 51°14.019 2°52.533 20.4297 0.097469 0.469814 -1.662225
2008-05-05 11:40:20 51°13.941 2°52.302 20.445 0.097469 0.469876 -1.662225
2008-05-05 11:41:19 51°13.856 2°52.081 20.451 0.097469 0.469946 -1.662225
2008-05-05 11:42:20 51°13.767 2°51.851 20.465 0.097366 0.469501 -1.662225
2008-05-05 11:43:20 51°13.673 2°51.629 20.461 0.097366 0.469571 -1.662225
2008-05-05 11:44:20 51°13.577 2°51.408 20.4777 0.097366 0.469634 -1.662225
2008-05-05 11:45:20 51°13.486 2°51.179 20.4866 0.097366 0.46971 -1.662225
2008-05-05 11:46:19 51°13.399 2°50.951 20.4944 0.097366 0.469773 -1.662225
2008-05-05 11:47:20 51°13.308 2°50.718 20.5044 0.097366 0.469836 -1.662225
2008-05-05 11:48:20 51°13.215 2°50.492 20.5108 0.097366 0.469905 -1.662225
2008-05-05 11:49:20 51°13.125 2°50.262 20.5128 0.097366 0.469968 -1.662225
2008-05-05 11:50:20 51°13.038 2°50.028 20.5358 0.097366 0.470045 -1.697049
2008-05-05 11:51:20 51°12.93 2°49.816 20.5358 0.097366 0.470108 -1.662225
2008-05-05 11:52:20 51°12.836 2°49.589 20.5457 0.097366 0.470177 -1.662225
2008-05-05 11:53:20 51°12.743 2°49.359 20.5553 0.097366 0.47024 -1.662225
2008-05-05 11:54:20 51°12.651 2°49.126 20.5618 0.097366 0.47031 -1.697049
2008-05-05 11:55:20 51°12.554 2°48.899 20.5715 0.097366 0.47038 -1.662225
2008-05-05 11:56:20 51°12.471 2°48.658 20.5862 0.097263 0.469921 -1.697049
2008-05-05 11:57:20 51°12.39 2°48.415 20.5871 0.097263 0.469998 -1.662225
2008-05-05 11:57:40 51°20.63 2°38.693 19.2931 0.10354 0.469211 -1.801521
2008-05-05 11:58:30 51°12.301 2°48.126 20.6059 0.097263 0.470075 -1.662225
2008-05-05 11:59:31 51°12.234 2°47.865 20.617 0.097263 0.470137 -1.662225
2008-05-05 12:00:31 51°12.169 2°47.608 20.6316 0.097263 0.470207 -1.662225
2008-05-05 12:01:30 51°12.099 2°47.36 20.6374 0.097263 0.470284 -1.697049
2008-05-05 12:02:31 51°12.031 2°47.102 20.6507 0.097263 0.470354 -1.697049
2008-05-05 12:03:30 51°11.973 2°46.847 20.663 0.097263 0.470431 -1.697049
2008-05-05 12:04:30 51°11.919 2°46.584 20.6729 0.097263 0.470501 -1.697049
2008-05-05 12:05:30 51°11.87 2°46.317 20.6894 0.097263 0.470564 -1.697049
2008-05-05 12:06:30 51°11.824 2°46.048 20.69 0.097263 0.470641 -1.697049
2008-05-05 12:07:30 51°11.77 2°45.782 20.7074 0.09716 0.470203 -1.697049
2008-05-05 12:08:30 51°11.736 2°45.507 20.7206 0.09716 0.470266 -1.697049
2008-05-05 12:09:30 51°11.704 2°45.23 20.7227 0.09716 0.47035 -1.697049
2008-05-05 12:10:30 51°11.669 2°44.954 20.7399 0.097161 0.470427 -1.697049
2008-05-05 12:11:30 51°11.635 2°44.678 20.7499 0.097161 0.470518 -1.662225
2008-05-05 12:12:30 51°11.603 2°44.401 20.7639 0.097161 0.470595 -1.662225
2008-05-05 12:13:30 51°11.581 2°44.119 20.7696 0.097161 0.470686 -1.697049
2008-05-05 12:14:30 51°11.558 2°43.838 20.7845 0.097161 0.470778 -1.697049
2008-05-05 12:15:30 51°11.534 2°43.556 20.7929 0.097161 0.470869 -1.697049
2008-05-05 12:16:30 51°11.497 2°43.278 20.7957 0.097058 0.470437 -1.697049
2008-05-05 12:17:30 51°11.453 2°43.005 20.8173 0.097058 0.470521 -1.697049
2008-05-05 12:18:30 51°11.39 2°42.741 20.8183 0.097058 0.470605 -1.697049
2008-05-05 12:19:30 51°11.309 2°42.491 20.8285 0.097058 0.470697 -1.697049
2008-05-05 12:20:30 51°11.217 2°42.25 20.8412 0.097058 0.470781 -1.697049
2008-05-05 12:21:30 51°11.123 2°42.012 20.8494 0.097058 0.470851 -1.662225
2008-05-05 12:22:30 51°11.046 2°41.758 20.8639 0.097058 0.470943 -1.697049
2008-05-05 12:23:30 51°10.962 2°41.509 20.8675 0.097058 0.47102 -1.697049
2008-05-05 12:24:30 51°10.883 2°41.259 20.8813 0.096955 0.47058 -1.697049
2008-05-05 12:25:30 51°10.81 2°41.004 20.8942 0.096955 0.470651 -1.697049
2008-05-05 12:26:30 51°10.731 2°40.753 20.8992 0.096955 0.470735 -1.697049
2008-05-05 12:27:30 51°10.65 2°40.504 20.9107 0.096955 0.470813 -1.697049
2008-05-05 12:28:30 51°10.552 2°40.272 20.9205 0.096955 0.470883 -1.697049
2008-05-05 12:29:30 51°10.459 2°40.033 20.9358 0.096955 0.470961 -1.697049
2008-05-05 12:30:30 51°10.368 2°39.792 20.9426 0.096955 0.471038 -1.697049
2008-05-05 12:31:30 51°10.278 2°39.552 20.9513 0.096852 0.470591 -1.697049
2008-05-05 12:32:30 51°10.221 2°39.401 20.9607 0.096852 0.470683 -1.697049
2008-05-05 12:33:30 51°10.226 2°39.378 20.9731 0.096852 0.47076 -1.697049
2008-05-05 12:34:30 51°10.242 2°39.397 20.9832 0.096852 0.470824 -1.697049
2008-05-05 12:35:30 51°10.257 2°39.422 20.9949 0.096852 0.470894 -1.697049
2008-05-05 12:36:30 51°10.271 2°39.448 21.0065 0.096852 0.470965 -1.697049
2008-05-05 12:37:30 51°10.284 2°39.474 21.0187 0.096852 0.471035 -1.697049
2008-05-05 12:38:30 51°10.296 2°39.502 21.0302 0.096852 0.471113 -1.697049
2008-05-05 12:39:30 51°10.307 2°39.53 21.0431 0.096749 0.470672 -1.697049
2008-05-05 12:40:30 51°10.317 2°39.558 21.0572 0.096749 0.470743 -1.697049
2008-05-05 12:41:30 51°10.327 2°39.587 21.0663 0.096749 0.470821 -1.697049
2008-05-05 12:42:30 51°10.336 2°39.615 21.0794 0.096749 0.470905 -1.697049
2008-05-05 12:43:30 51°10.345 2°39.644 21.0901 0.096749 0.470983 -1.697049
2008-05-05 12:44:30 51°10.354 2°39.674 21.0992 0.096749 0.471061 -1.697049
2008-05-05 12:45:30 51°10.366 2°39.693 21.1156 0.096749 0.471139 -1.697049
2008-05-05 12:46:30 51°10.362 2°39.667 21.1196 0.096646 0.470726 -1.697049
2008-05-05 12:47:30 51°10.327 2°39.653 21.1237 0.096646 0.470754 -1.697049
2008-05-05 12:48:30 51°10.286 2°39.61 21.1348 0.096646 0.47086 -1.697049
2008-05-05 12:49:30 51°10.271 2°39.558 21.1388 0.096646 0.470931 -1.697049
2008-05-05 12:50:30 51°10.269 2°39.496 21.1427 0.096646 0.470995 -1.697049
2008-05-05 12:51:30 51°10.256 2°39.414 21.1458 0.096646 0.471073 -1.697049
2008-05-05 12:52:30 51°10.241 2°39.333 21.1524 0.096543 0.470617 -1.697049
2008-05-05 12:53:30 51°10.228 2°39.253 21.155 0.096543 0.470681 -1.697049
2008-05-05 12:54:30 51°10.203 2°39.189 21.1585 0.096543 0.470758 -1.697049
2008-05-05 12:55:30 51°10.177 2°39.122 21.1647 0.096543 0.470822 -1.697049
2008-05-05 12:56:30 51°10.154 2°39.051 21.1685 0.096543 0.4709 -1.697049
2008-05-05 12:57:30 51°10.131 2°38.977 21.1718 0.096543 0.470978 -1.697049
2008-05-05 12:58:30 51°10.108 2°38.905 21.1736 0.096543 0.471049 -1.697049
2008-05-05 12:59:30 51°10.086 2°38.831 21.1804 0.09644 0.4706 -1.697049
2008-05-05 13:00:30 51°10.066 2°38.757 21.1865 0.09644 0.470678 -1.697049
2008-05-05 13:01:30 51°10.047 2°38.685 21.1886 0.09644 0.470742 -1.697049
2008-05-05 13:02:30 51°10.026 2°38.612 21.1908 0.09644 0.470806 -1.697049
2008-05-05 13:03:30 51°10.005 2°38.539 21.1953 0.09644 0.470877 -1.697049
2008-05-05 13:04:30 51°9.984 2°38.464 21.1981 0.09644 0.470948 -1.697049
2008-05-05 13:05:30 51°9.963 2°38.389 21.2023 0.09644 0.471019 -1.731873
2008-05-05 13:06:30 51°9.941 2°38.314 21.2029 0.096337 0.470562 -1.697049
2008-05-05 13:07:30 51°9.921 2°38.235 21.2075 0.096337 0.470626 -1.697049
2008-05-05 13:08:30 51°9.902 2°38.156 21.21 0.096337 0.470697 -1.731873
2008-05-05 13:09:30 51°9.884 2°38.076 21.2122 0.096337 0.470761 -1.697049
2008-05-05 13:10:30 51°9.866 2°37.996 21.2152 0.096337 0.470832 -1.697049
2008-05-05 13:11:30 51°9.849 2°37.917 21.2184 0.096337 0.470896 -1.697049
2008-05-05 13:12:30 51°9.837 2°37.848 21.2217 0.096337 0.470967 -1.697049
2008-05-05 13:13:30 51°9.825 2°37.782 21.2268 0.096234 0.47051 -1.697049
2008-05-05 13:14:30 51°9.813 2°37.717 21.2283 0.096234 0.470581 -1.731873
2008-05-05 13:15:30 51°9.798 2°37.646 21.2307 0.096234 0.470645 -1.697049
2008-05-05 13:16:30 51°9.782 2°37.574 21.2343 0.096234 0.470709 -1.697049
2008-05-05 13:17:30 51°9.766 2°37.503 21.2378 0.096234 0.47078 -1.731873
2008-05-05 13:18:30 51°9.751 2°37.43 21.2404 0.096234 0.470844 -1.697049
2008-05-05 13:19:30 51°9.734 2°37.359 21.243 0.096234 0.470916 -1.697049
2008-05-05 13:20:30 51°9.716 2°37.288 21.2438 0.096234 0.47098 -1.697049
2008-05-05 13:21:30 51°9.701 2°37.214 21.2473 0.096234 0.471051 -1.697049
2008-05-05 13:22:30 51°9.686 2°37.14 21.2504 0.096132 0.470593 -1.697049
2008-05-05 13:23:30 51°9.693 2°37.064 21.2504 0.096132 0.470664 -1.697049
2008-05-05 13:24:30 51°9.734 2°37.005 21.2533 0.096132 0.470729 -1.697049
2008-05-05 13:25:30 51°9.788 2°36.976 21.2535 0.096132 0.4708 -1.697049
2008-05-05 13:26:30 51°9.834 2°36.967 21.2519 0.096132 0.470871 -1.731873
2008-05-05 13:27:30 51°9.874 2°36.973 21.255 0.096132 0.470943 -1.697049
2008-05-05 13:28:30 51°9.902 2°36.982 21.2536 0.096132 0.471014 -1.697049
2008-05-05 13:29:30 51°9.921 2°36.984 21.2548 0.096029 0.47057 -1.697049
2008-05-05 13:30:30 51°9.935 2°36.988 21.2563 0.096029 0.470648 -1.731873
2008-05-05 13:31:30 51°9.96 2°36.991 21.251 0.096029 0.470727 -1.697049
2008-05-05 13:32:30 51°10.027 2°37.099 21.2622 0.096029 0.470848 -1.697049
2008-05-05 13:33:30 51°10.128 2°37.329 21.2559 0.096029 0.470934 -1.697049
2008-05-05 13:34:30 51°10.184 2°37.643 21.2513 0.095926 0.47049 -1.697049
2008-05-05 13:35:30 51°10.248 2°37.974 21.2479 0.095926 0.470604 -1.731873
2008-05-05 13:36:30 51°10.37 2°38.272 21.2467 0.095926 0.470675 -1.697049
2008-05-05 13:37:30 51°10.459 2°38.6 21.2467 0.095926 0.470783 -1.697049
2008-05-05 13:38:30 51°10.539 2°38.931 21.2432 0.095926 0.47089 -1.697049
2008-05-05 13:39:30 51°10.622 2°39.259 21.244 0.095823 0.470481 -1.731873
2008-05-05 13:40:30 51°10.706 2°39.586 21.2426 0.095823 0.47061 -1.697049
2008-05-05 13:41:30 51°10.793 2°39.912 21.241 0.095823 0.47076 -1.697049
2008-05-05 13:42:30 51°10.887 2°40.232 21.2375 0.095823 0.470896 -1.697049
2008-05-05 13:43:30 51°10.971 2°40.56 21.2376 0.09572 0.470515 -1.697049
2008-05-05 13:44:30 51°11.041 2°40.896 21.2365 0.09572 0.470673 -1.697049
2008-05-05 13:45:30 51°11.109 2°41.234 21.2343 0.09572 0.470824 -1.697049
2008-05-05 13:46:30 51°11.175 2°41.57 21.2341 0.09572 0.470974 -1.697049
2008-05-05 13:47:30 51°11.241 2°41.906 21.2311 0.095617 0.470593 -1.697049
2008-05-05 13:48:30 51°11.307 2°42.24 21.2279 0.095617 0.470737 -1.731873
2008-05-05 13:49:30 51°11.364 2°42.577 21.2289 0.095617 0.470888 -1.697049
2008-05-05 13:50:30 51°11.421 2°42.913 21.2251 0.095514 0.470499 -1.731873
2008-05-05 13:51:30 51°11.481 2°43.248 21.225 0.095514 0.470636 -1.697049
2008-05-05 13:52:30 51°11.532 2°43.587 21.2225 0.095514 0.47078 -1.731873
2008-05-05 13:53:30 51°11.583 2°43.925 21.222 0.095514 0.470909 -1.697049
2008-05-05 13:54:30 51°11.646 2°44.259 21.2187 0.095411 0.470513 -1.697049
2008-05-05 13:55:30 51°11.704 2°44.594 21.2184 0.095411 0.470642 -1.697049
2008-05-05 13:56:30 51°11.765 2°44.926 21.2165 0.095411 0.470765 -1.697049
2008-05-05 13:57:30 51°11.82 2°45.262 21.2148 0.095411 0.470895 -1.697049
2008-05-05 13:58:30 51°11.866 2°45.601 21.2152 0.095308 0.470491 -1.697049
2008-05-05 13:59:30 51°11.919 2°45.936 21.2117 0.095308 0.470613 -1.697049
2008-05-05 14:00:30 51°11.977 2°46.269 21.2106 0.095308 0.470736 -1.697049
2008-05-05 14:01:30 51°12.031 2°46.604 21.2091 0.095308 0.470866 -1.731873
2008-05-05 14:02:30 51°12.083 2°46.94 21.2091 0.095205 0.470455 -1.697049
2008-05-05 14:03:30 51°12.132 2°47.276 21.2087 0.095205 0.470577 -1.697049
2008-05-05 14:04:30 51°12.214 2°47.596 21.2061 0.095205 0.470693 -1.697049
2008-05-05 14:05:30 51°12.319 2°47.899 21.2137 0.095205 0.470787 -1.697049
2008-05-05 14:06:30 51°12.423 2°48.203 21.2035 0.095205 0.47091 -1.731873
2008-05-05 14:07:30 51°12.524 2°48.509 21.2028 0.095103 0.470505 -1.697049
2008-05-05 14:08:30 51°12.623 2°48.817 21.2014 0.095103 0.470642 -1.697049
2008-05-05 14:09:30 51°12.719 2°49.127 21.2035 0.095103 0.470773 -1.731873
2008-05-05 14:10:30 51°12.811 2°49.44 21.2017 0.095103 0.470896 -1.731873
2008-05-05 14:11:30 51°12.922 2°49.738 21.2029 0.095 0.470498 -1.731873
2008-05-05 14:12:30 51°13.037 2°50.031 21.1981 0.095 0.470621 -1.731873
2008-05-05 14:13:30 51°13.151 2°50.326 21.2032 0.095 0.470759 -1.697049
2008-05-05 14:14:30 51°13.267 2°50.619 21.2044 0.095 0.470882 -1.731873
2008-05-05 14:15:30 51°13.383 2°50.913 21.2044 0.094897 0.470484 -1.697049
2008-05-05 14:16:30 51°13.503 2°51.201 21.206 0.094897 0.470615 -1.697049
2008-05-05 14:17:30 51°13.623 2°51.49 21.2107 0.094897 0.470738 -1.697049
2008-05-05 14:18:30 51°13.741 2°51.782 21.2145 0.094897 0.470869 -1.731873
2008-05-05 14:19:30 51°13.856 2°52.065 21.2179 0.094897 0.471007 -1.697049
2008-05-05 14:20:30 51°13.933 2°52.306 21.221 0.094794 0.470601 -1.731873
2008-05-05 14:21:30 51°13.989 2°52.547 21.2261 0.094794 0.470739 -1.731873
2008-05-05 14:22:30 51°14.043 2°52.786 21.2319 0.094794 0.47087 -1.697049
2008-05-05 14:23:30 51°14.097 2°53.022 21.2376 0.094794 0.470986 -1.731873
2008-05-05 14:24:30 51°14.152 2°53.25 21.2428 0.094691 0.47058 -1.731873
2008-05-05 14:25:30 51°14.193 2°53.398 21.2485 0.094691 0.470689 -1.731873
2008-05-05 14:26:30 51°14.224 2°53.506 21.256 0.094691 0.470806 -1.697049
2008-05-05 14:27:30 51°14.25 2°53.621 21.2604 0.094691 0.470922 -1.697049
2008-05-05 14:28:30 51°14.276 2°53.737 21.2662 0.094691 0.471032 -1.731873
2008-05-05 14:29:30 51°14.304 2°53.854 21.2719 0.094691 0.471148 -1.697049
2008-05-05 14:30:30 51°14.332 2°53.971 18.8593 0.094588 0.470727 -1.697049
2008-05-05 14:31:30 51°14.361 2°54.087 18.8319 0.094588 0.470837 -1.697049
2008-05-05 14:32:30 51°14.389 2°54.203 19.0836 0.094588 0.470946 -1.662225
2008-05-05 14:33:30 51°14.407 2°54.271 19.1299 0.094588 0.471063 -1.662225
2008-05-05 14:34:30 51°14.412 2°54.296 19.1563 0.094588 0.471165 -1.662225
2008-05-05 14:35:30 51°14.414 2°54.315 19.1899 0.094485 0.470751 -1.662225
2008-05-05 14:36:30 51°14.413 2°54.33 19.2164 0.094485 0.47086 -1.662225
2008-05-05 14:37:30 51°14.42 2°54.458 19.2587 0.094485 0.470955 -1.662225
2008-05-05 14:38:30 51°14.416 2°54.691 19.3581 0.094485 0.471065 -1.697049
2008-05-05 14:39:30 51°14.387 2°54.917 19.4 0.094485 0.471175 -1.697049
2008-05-05 14:40:30 51°14.327 2°55.122 19.6226 0.094485 0.471277 -1.662225
2008-05-05 14:41:30 51°14.239 2°55.293 19.5542 0.094382 0.470863 -1.697049
2008-05-05 14:42:30 51°14.129 2°55.424 19.4199 0.094382 0.470972 -1.697049
2008-05-05 14:43:30 51°14.015 2°55.509 19.3024 0.094382 0.47109 -1.662225
2008-05-05 14:44:30 51°13.931 2°55.569 19.3962 0.094382 0.471185 -1.697049
2008-05-05 14:45:30 51°13.868 2°55.608 19.7167 0.094382 0.471295 -1.697049
2008-05-05 14:46:30 51°13.828 2°55.638 19.5531 0.094279 0.470858 -1.697049
2008-05-05 14:47:30 51°13.804 2°55.662 19.7113 0.094279 0.470946 -1.662225
2008-05-05 14:48:30 51°13.781 2°55.683 19.6212 0.094279 0.471041 -1.697049
2008-05-05 14:49:30 51°13.764 2°55.703 19.7733 0.094279 0.471122 -1.697049
2008-05-05 14:50:30 51°13.741 2°55.745 19.7385 0.094279 0.471217 -1.697049
2008-05-05 14:51:30 51°13.708 2°55.807 19.8418 0.094279 0.471305 -1.697049
2008-05-05 14:52:30 51°13.675 2°55.894 19.7748 0.094176 0.47086 -1.662225
2008-05-05 14:53:30 51°13.662 2°55.95 20.0606 0.094177 0.470941 -1.697049